Terminal Aerodrome Forecast
Issued by NWS

Home | Current Version | Previous Version | Text Only | Print | Product List | Glossary On
Versions: 1 2 3 4 5 6 7 8 9 10 11 12 13 14 15
000
FTUS44 KLIX 200500
TAFGPT
TAF
KGPT 200520Z 2006/2106 05004KT P6SM FEW250
     FM201400 08011KT P6SM FEW250
     FM201700 11012KT P6SM SCT045
     FM210000 10006KT P6SM SCT250=

USA.gov is the U.S. government's official web portal to all federal, state and local government web resources and services.